createdAt,value
2023-02-21T00:00:55.741Z,100335.16
2023-02-21T00:04:16.868Z,100316.44
2023-02-21T00:07:39.523Z,100329.47
2023-02-21T00:11:04.653Z,100329.88
2023-02-21T00:14:28.281Z,100320.91
2023-02-21T00:17:49.601Z,100318.06
2023-02-21T00:21:11.219Z,100316.44
2023-02-21T00:24:37.436Z,100308.66
2023-02-21T00:27:58.489Z,100296.22
2023-02-21T00:31:19.855Z,100312.25
2023-02-21T00:34:44.047Z,100305.41
2023-02-21T00:38:09.793Z,100315.78
2023-02-21T00:41:31.130Z,100313.34
2023-02-21T00:44:55.758Z,100298.88
2023-02-21T00:48:20.238Z,100301.50
2023-02-21T00:51:42.713Z,100312.53
2023-02-21T00:55:06.776Z,100319.91
2023-02-21T00:58:35.632Z,100295.06
2023-02-21T01:01:56.868Z,100325.59
2023-02-21T01:05:17.905Z,100325.16
2023-02-21T01:08:39.039Z,100315.75
2023-02-21T01:12:00.160Z,100325.78
2023-02-21T01:15:21.536Z,100325.19
2023-02-21T01:18:42.905Z,100327.63
2023-02-21T01:22:03.964Z,100319.50
2023-02-21T01:25:25.841Z,100316.44
2023-02-21T01:28:46.961Z,100305.84
2023-02-21T01:32:09.429Z,100313.38
2023-02-21T01:35:33.222Z,100298.94
2023-02-21T01:38:55.011Z,100311.53
2023-02-21T01:42:18.191Z,100311.75
2023-02-21T01:45:40.702Z,100302.59
2023-02-21T01:49:05.339Z,100289.56
2023-02-21T01:52:27.566Z,100293.41
2023-02-21T01:55:49.656Z,100287.53
2023-02-21T01:59:16.347Z,100285.06
2023-02-21T02:02:47.794Z,100267.16
2023-02-21T02:06:17.781Z,100283.44
2023-02-21T02:09:42.911Z,100285.69
2023-02-21T02:13:13.370Z,100285.47
2023-02-21T02:16:27.899Z,100277.34
2023-02-21T02:20:24.291Z,100278.53
2023-02-21T02:23:29.691Z,100275.69
2023-02-21T02:26:59.458Z,100273.44
2023-02-21T02:30:37.331Z,100260.19
2023-02-21T02:33:57.826Z,100277.50
2023-02-21T02:37:13.180Z,100271.56
2023-02-21T02:40:36.419Z,100262.81
2023-02-21T02:43:55.917Z,100264.41
2023-02-21T02:47:01.502Z,100271.91
2023-02-21T02:50:07.267Z,100267.44
2023-02-21T02:53:12.803Z,100267.25
2023-02-21T02:56:21.776Z,100264.63
2023-02-21T02:59:27.425Z,100269.88
2023-02-21T03:02:47.078Z,100267.41
2023-02-21T03:06:04.763Z,100266.19
2023-02-21T03:09:21.149Z,100272.47
2023-02-21T03:12:28.226Z,100273.50
2023-02-21T03:15:48.620Z,100269.03
2023-02-21T03:19:08.856Z,100280.16
2023-02-21T03:22:18.493Z,100279.75
2023-02-21T03:25:21.948Z,100280.13
2023-02-21T03:28:28.240Z,100286.53
2023-02-21T03:31:46.871Z,100291.97
2023-02-21T03:34:52.022Z,100279.69
2023-02-21T03:37:55.811Z,100286.50
2023-02-21T03:41:01.265Z,100285.81
2023-02-21T03:44:03.996Z,100289.69
2023-02-21T03:47:09.381Z,100286.34
2023-02-21T03:50:12.393Z,100286.81
2023-02-21T03:53:18.143Z,100273.97
2023-02-21T03:56:24.410Z,100280.13
2023-02-21T03:59:37.628Z,100276.44
2023-02-21T04:02:40.307Z,100268.97
2023-02-21T04:05:43.301Z,100267.97
2023-02-21T04:08:46.551Z,100267.63
2023-02-21T04:11:58.431Z,100260.56
2023-02-21T04:15:04.156Z,100269.53
2023-02-21T04:18:06.881Z,100284.59
2023-02-21T04:21:09.658Z,100275.56
2023-02-21T04:24:12.734Z,100274.38
2023-02-21T04:27:16.574Z,100278.19
2023-02-21T04:30:25.248Z,100270.50
2023-02-21T04:33:32.166Z,100266.28
2023-02-21T04:36:35.120Z,100262.03
2023-02-21T04:39:37.761Z,100259.31
2023-02-21T04:42:40.550Z,100253.59
2023-02-21T04:45:44.269Z,100257.75
2023-02-21T04:48:54.003Z,100250.41
2023-02-21T04:51:56.638Z,100264.00
2023-02-21T04:55:01.930Z,100251.41
2023-02-21T04:58:09.061Z,100255.66
2023-02-21T05:01:12.627Z,100256.84
2023-02-21T05:04:15.550Z,100245.47
2023-02-21T05:07:18.215Z,100252.41
2023-02-21T05:10:27.031Z,100257.38
2023-02-21T05:13:33.807Z,100256.06
2023-02-21T05:16:36.689Z,100255.03
2023-02-21T05:19:39.370Z,100262.09
2023-02-21T05:22:42.933Z,100255.28
2023-02-21T05:25:45.967Z,100270.50
2023-02-21T05:28:48.561Z,100264.13
2023-02-21T05:31:51.990Z,100274.13
2023-02-21T05:34:54.610Z,100268.66
2023-02-21T05:37:57.229Z,100269.50
2023-02-21T05:41:00.041Z,100260.81
2023-02-21T05:44:03.849Z,100263.28
2023-02-21T05:47:12.708Z,100253.00
2023-02-21T05:50:16.302Z,100261.38
2023-02-21T05:53:19.679Z,100255.88
2023-02-21T05:56:22.436Z,100267.38
2023-02-21T05:59:27.947Z,100246.31
2023-02-21T06:02:30.538Z,100261.66
2023-02-21T06:05:33.131Z,100258.75
2023-02-21T06:08:53.991Z,100273.56
2023-02-21T06:11:57.547Z,100286.63
2023-02-21T06:15:00.334Z,100294.91
2023-02-21T06:18:05.945Z,100290.91
2023-02-21T06:21:08.545Z,100287.00
2023-02-21T06:24:12.486Z,100305.13
2023-02-21T06:27:15.910Z,100279.47
2023-02-21T06:30:18.752Z,100282.19
2023-02-21T06:33:25.577Z,100280.81
2023-02-21T06:36:29.309Z,100214.31
2023-02-21T06:39:31.962Z,100297.91
2023-02-21T06:42:48.101Z,100268.72
2023-02-21T06:45:55.078Z,100306.22
2023-02-21T06:48:58.332Z,100304.31
2023-02-21T06:52:08.422Z,100302.06
2023-02-21T06:55:11.101Z,100302.22
2023-02-21T06:58:13.748Z,100296.03
2023-02-21T07:01:17.035Z,100289.56
2023-02-21T07:04:19.841Z,100302.88
2023-02-21T07:07:22.796Z,100299.25
2023-02-21T07:10:25.946Z,100304.63
2023-02-21T07:13:28.785Z,100308.84
2023-02-21T07:16:36.446Z,100310.66
2023-02-21T07:19:38.996Z,100314.72
2023-02-21T07:22:44.579Z,100314.09
2023-02-21T07:25:47.356Z,100314.50
2023-02-21T07:28:50.356Z,100309.03
2023-02-21T07:31:53.142Z,100300.94
2023-02-21T07:34:56.483Z,100311.09
2023-02-21T07:38:02.433Z,100317.75
2023-02-21T07:41:05.271Z,100315.75
2023-02-21T07:44:08.143Z,100308.78
2023-02-21T07:47:10.911Z,100326.09
2023-02-21T07:50:13.568Z,100329.00
2023-02-21T07:53:16.645Z,100324.09
2023-02-21T07:56:19.914Z,100304.41
2023-02-21T07:59:22.896Z,100318.78
2023-02-21T08:02:26.828Z,100303.84
2023-02-21T08:05:29.671Z,100312.06
2023-02-21T08:08:32.230Z,100311.13
2023-02-21T08:11:38.543Z,100308.78
2023-02-21T08:14:41.071Z,100307.66
2023-02-21T08:17:43.919Z,100302.56
2023-02-21T08:20:47.653Z,100307.56
2023-02-21T08:23:58.356Z,100309.66
2023-02-21T08:27:00.987Z,100325.63
2023-02-21T08:30:04.567Z,100302.66
2023-02-21T08:33:08.488Z,100316.56
2023-02-21T08:36:12.120Z,100217.53
2023-02-21T08:39:15.240Z,100302.91
2023-02-21T08:42:19.051Z,100274.59
2023-02-21T08:45:31.959Z,100317.75
2023-02-21T08:48:40.956Z,100329.91
2023-02-21T08:52:04.297Z,100319.88
2023-02-21T08:55:11.403Z,100306.38
2023-02-21T09:03:46.405Z,100283.94
2023-02-21T09:07:36.679Z,100266.66
2023-02-21T09:12:26.022Z,100283.81
2023-02-21T09:15:08.760Z,100264.13
2023-02-21T09:18:28.337Z,100289.84
2023-02-21T09:21:43.576Z,100233.88
2023-02-21T09:24:46.199Z,100316.34
2023-02-21T09:27:48.962Z,100323.00
2023-02-21T09:30:53.130Z,100290.78
2023-02-21T09:33:56.033Z,100278.50
2023-02-21T09:37:01.191Z,100305.72
2023-02-21T09:40:05.530Z,100337.63
2023-02-21T09:43:18.335Z,100333.06
2023-02-21T09:46:50.190Z,100336.38
2023-02-21T09:49:58.033Z,100334.38
2023-02-21T09:53:05.572Z,100326.53
2023-02-21T09:56:28.538Z,100318.97
2023-02-21T09:59:31.442Z,100330.97
2023-02-21T10:02:43.813Z,100327.59
2023-02-21T10:06:15.611Z,100293.44
2023-02-21T10:10:03.000Z,100320.78
2023-02-21T10:13:26.794Z,100313.31
2023-02-21T10:17:19.888Z,100289.19
2023-02-21T10:20:47.337Z,100305.28
2023-02-21T10:23:52.264Z,100275.88
2023-02-21T10:27:13.452Z,100292.13
2023-02-21T10:30:27.261Z,100275.13
2023-02-21T10:33:33.595Z,100292.66
2023-02-21T10:36:39.916Z,100287.75
2023-02-21T10:39:54.507Z,100280.72
2023-02-21T10:43:12.455Z,100282.84
2023-02-21T10:46:36.000Z,100299.78
2023-02-21T10:50:13.062Z,100283.75
2023-02-21T10:53:31.455Z,100278.66
2023-02-21T10:56:34.045Z,100274.88
2023-02-21T10:59:42.386Z,100258.75
2023-02-21T11:02:45.165Z,100266.72
2023-02-21T11:05:57.908Z,100259.09
2023-02-21T11:09:01.964Z,100266.38
2023-02-21T11:12:19.645Z,100267.19
2023-02-21T11:15:23.263Z,100266.06
2023-02-21T11:18:26.387Z,100263.34
2023-02-21T11:21:34.095Z,100255.31
2023-02-21T11:25:12.427Z,100246.13
2023-02-21T11:28:26.895Z,100237.63
2023-02-21T11:31:33.346Z,100241.06
2023-02-21T11:34:36.250Z,100241.53
2023-02-21T11:37:52.393Z,100235.59
2023-02-21T11:40:55.109Z,100247.34
2023-02-21T11:43:58.352Z,100231.75
2023-02-21T11:47:21.375Z,100238.63
2023-02-21T11:50:33.572Z,100218.16
2023-02-21T11:53:45.322Z,100185.16
2023-02-21T11:57:02.515Z,100226.38
2023-02-21T12:00:36.282Z,100221.97
2023-02-21T12:04:01.976Z,100220.00
2023-02-21T12:07:17.720Z,100219.44
2023-02-21T12:10:38.400Z,100220.00
2023-02-21T12:14:00.963Z,100215.63
2023-02-21T12:17:06.317Z,100208.44
2023-02-21T12:20:21.929Z,100203.22
2023-02-21T12:23:26.980Z,100215.81
2023-02-21T12:26:52.116Z,100207.28
2023-02-21T12:29:54.598Z,100211.22
2023-02-21T12:33:03.604Z,100206.28
2023-02-21T12:36:21.852Z,100168.41
2023-02-21T12:39:52.505Z,100197.06
2023-02-21T12:43:20.397Z,100199.88
2023-02-21T12:47:01.184Z,100186.50
2023-02-21T12:50:23.913Z,100135.13
2023-02-21T12:54:04.406Z,100179.19
2023-02-21T12:57:15.607Z,100169.38
2023-02-21T13:00:28.362Z,100158.50
2023-02-21T13:03:30.956Z,100163.16
2023-02-21T13:06:49.278Z,100153.97
2023-02-21T13:10:03.582Z,100160.84
2023-02-21T13:13:14.260Z,100152.47
2023-02-21T13:16:18.760Z,100147.94
2023-02-21T13:19:27.964Z,100110.22
2023-02-21T13:23:26.844Z,100146.09
2023-02-21T13:26:56.204Z,100149.66
2023-02-21T13:30:21.667Z,100159.13
2023-02-21T13:33:28.508Z,100147.56
2023-02-21T13:36:38.167Z,100148.91
2023-02-21T13:39:44.627Z,100149.09
2023-02-21T13:42:59.042Z,100156.59
2023-02-21T13:46:46.411Z,100148.63
2023-02-21T13:49:59.199Z,100142.00
2023-02-21T13:53:21.941Z,100147.06
2023-02-21T13:56:41.543Z,100139.53
2023-02-21T13:59:44.220Z,100137.91
2023-02-21T14:02:57.039Z,100150.28
2023-02-21T14:05:59.812Z,100150.50
2023-02-21T14:09:20.798Z,100125.19
2023-02-21T14:12:26.384Z,100128.22
2023-02-21T14:15:45.098Z,100151.63
2023-02-21T14:19:06.288Z,100141.44
2023-02-21T14:22:32.419Z,100120.72
2023-02-21T14:25:35.702Z,100154.63
2023-02-21T14:28:56.805Z,100148.41
2023-02-21T14:32:08.214Z,100146.28
2023-02-21T14:35:36.122Z,100142.75
2023-02-21T14:38:42.045Z,100151.59
2023-02-21T14:42:15.728Z,100139.50
2023-02-21T14:45:35.672Z,100155.19
2023-02-21T14:48:55.289Z,100154.09
2023-02-21T14:52:06.794Z,100158.75
2023-02-21T14:55:37.052Z,100155.81
2023-02-21T14:58:53.073Z,100150.19
2023-02-21T15:02:37.022Z,100152.56
2023-02-21T15:05:54.987Z,100153.66
2023-02-21T15:08:57.680Z,100150.69
2023-02-21T15:12:00.332Z,100146.34
2023-02-21T15:15:03.099Z,100158.28
2023-02-21T15:18:11.161Z,100156.09
2023-02-21T15:21:18.579Z,100155.28
2023-02-21T15:24:22.970Z,100163.13
2023-02-21T15:27:28.307Z,100156.91
2023-02-21T15:30:33.131Z,100161.97
2023-02-21T15:33:44.299Z,100158.56
2023-02-21T15:36:59.040Z,100155.81
2023-02-21T15:40:20.433Z,100154.06
2023-02-21T15:43:32.792Z,100159.53
2023-02-21T15:46:54.863Z,100150.72
2023-02-21T15:50:10.469Z,100172.53
2023-02-21T15:53:16.547Z,100172.09
2023-02-21T15:56:25.903Z,100173.25
2023-02-21T15:59:29.524Z,100177.91
2023-02-21T16:02:32.562Z,100165.69
2023-02-21T16:05:36.312Z,100178.16
2023-02-21T16:09:05.606Z,100181.00
2023-02-21T16:12:28.202Z,100182.75
2023-02-21T16:15:38.326Z,100187.72
2023-02-21T16:18:41.599Z,100182.31
2023-02-21T16:21:44.310Z,100202.84
2023-02-21T16:24:46.862Z,100201.44
2023-02-21T16:27:52.847Z,100215.41
2023-02-21T16:31:06.224Z,100224.53
2023-02-21T16:34:13.352Z,100215.78
2023-02-21T16:37:15.978Z,100226.41
2023-02-21T16:40:30.834Z,100220.09
2023-02-21T16:43:33.483Z,100233.47
2023-02-21T16:46:36.113Z,100215.22
2023-02-21T16:49:39.175Z,100228.09
2023-02-21T16:52:41.820Z,100234.28
2023-02-21T16:55:45.416Z,100224.34
2023-02-21T16:58:55.498Z,100242.28
2023-02-21T17:02:05.542Z,100231.53
2023-02-21T17:05:08.482Z,100235.69
2023-02-21T17:08:11.726Z,100248.00
2023-02-21T17:11:14.672Z,100258.50
2023-02-21T17:14:17.571Z,100259.06
2023-02-21T17:17:20.376Z,100266.81
2023-02-21T17:20:23.950Z,100264.97
2023-02-21T17:23:28.579Z,100257.97
2023-02-21T17:26:34.238Z,100272.22
2023-02-21T17:29:39.600Z,100277.28
2023-02-21T17:32:47.120Z,100258.97
2023-02-21T17:35:50.146Z,100271.44
2023-02-21T17:38:52.888Z,100279.16
2023-02-21T17:41:55.923Z,100273.25
2023-02-21T17:45:03.443Z,100276.53
2023-02-21T17:48:06.570Z,100263.72
2023-02-21T17:51:10.151Z,100265.34
2023-02-21T17:54:18.291Z,100272.06
2023-02-21T17:57:21.861Z,100266.75
2023-02-21T18:00:27.563Z,100257.47
2023-02-21T18:03:30.349Z,100270.56
2023-02-21T18:06:33.176Z,100272.63
2023-02-21T18:09:35.937Z,100265.00
2023-02-21T18:12:38.765Z,100275.44
2023-02-21T18:15:44.504Z,100270.19
2023-02-21T18:18:47.405Z,100283.19
2023-02-21T18:21:50.128Z,100275.44
2023-02-21T18:24:56.207Z,100276.13
2023-02-21T18:28:00.250Z,100242.41
2023-02-21T18:31:03.416Z,100262.19
2023-02-21T18:34:07.808Z,100266.03
2023-02-21T18:37:10.745Z,100269.53
2023-02-21T18:40:15.571Z,100265.22
2023-02-21T18:43:27.580Z,100263.69
2023-02-21T18:46:33.286Z,100268.97
2023-02-21T18:49:38.780Z,100267.72
2023-02-21T18:52:41.604Z,100266.63
2023-02-21T18:55:44.906Z,100262.03
2023-02-21T18:58:49.444Z,100274.84
2023-02-21T19:01:53.923Z,100270.94
2023-02-21T19:04:57.446Z,100277.31
2023-02-21T19:08:08.442Z,100279.75
2023-02-21T19:11:13.199Z,100262.41
2023-02-21T19:14:16.122Z,100266.50
2023-02-21T19:17:18.976Z,100274.28
2023-02-21T19:20:21.800Z,100273.66
2023-02-21T19:23:27.701Z,100268.53
2023-02-21T19:26:31.118Z,100272.78
2023-02-21T19:29:33.737Z,100274.75
2023-02-21T19:32:39.904Z,100270.03
2023-02-21T19:35:42.578Z,100253.13
2023-02-21T19:38:45.164Z,100261.38
2023-02-21T19:41:47.989Z,100268.09
2023-02-21T19:44:50.943Z,100275.66
2023-02-21T19:47:54.057Z,100273.06
2023-02-21T19:50:57.854Z,100283.28
2023-02-21T19:54:01.551Z,100289.47
2023-02-21T19:57:04.554Z,100304.59
2023-02-21T20:00:11.123Z,100295.63
2023-02-21T20:03:14.052Z,100295.03
2023-02-21T20:06:17.578Z,100311.13
2023-02-21T20:09:21.495Z,100279.38
2023-02-21T20:12:24.499Z,100311.97
2023-02-21T20:15:27.257Z,100307.88
2023-02-21T20:18:32.918Z,100309.91
2023-02-21T20:21:36.211Z,100312.56
2023-02-21T20:24:39.104Z,100305.44
2023-02-21T20:27:41.960Z,100320.09
2023-02-21T20:30:47.475Z,100314.34
2023-02-21T20:33:51.901Z,100310.41
2023-02-21T20:36:54.718Z,100324.06
2023-02-21T20:39:57.812Z,100304.34
2023-02-21T20:43:01.096Z,100302.16
2023-02-21T20:46:04.748Z,100314.47
2023-02-21T20:49:07.626Z,100333.59
2023-02-21T20:52:18.120Z,100321.91
2023-02-21T20:55:22.554Z,100333.47
2023-02-21T20:58:36.516Z,100329.59
2023-02-21T21:01:39.468Z,100320.88
2023-02-21T21:04:43.525Z,100342.72
2023-02-21T21:07:46.304Z,100326.56
2023-02-21T21:10:48.979Z,100340.72
2023-02-21T21:13:52.259Z,100342.47
2023-02-21T21:16:56.916Z,100345.06
2023-02-21T21:20:00.138Z,100342.28
2023-02-21T21:23:03.010Z,100342.38
2023-02-21T21:26:08.657Z,100341.28
2023-02-21T21:29:13.637Z,100344.19
2023-02-21T21:32:22.095Z,100333.41
2023-02-21T21:35:30.080Z,100335.75
2023-02-21T21:38:32.900Z,100341.94
2023-02-21T21:41:38.781Z,100337.81
2023-02-21T21:44:53.712Z,100330.47
2023-02-21T21:48:00.227Z,100330.53
2023-02-21T21:51:05.918Z,100330.19
2023-02-21T21:54:12.547Z,100335.16
2023-02-21T21:57:18.827Z,100333.78
2023-02-21T22:00:30.870Z,100333.50
2023-02-21T22:03:34.837Z,100339.53
2023-02-21T22:06:37.802Z,100333.22
2023-02-21T22:09:40.879Z,100333.59
2023-02-21T22:12:47.808Z,100320.53
2023-02-21T22:15:50.478Z,100329.97
2023-02-21T22:18:56.863Z,100326.81
2023-02-21T22:22:08.772Z,100320.81
2023-02-21T22:25:13.286Z,100322.03
2023-02-21T22:28:16.405Z,100314.09
2023-02-21T22:31:20.813Z,100321.91
2023-02-21T22:34:23.524Z,100317.88
2023-02-21T22:37:26.154Z,100326.50
2023-02-21T22:40:30.622Z,100318.66
2023-02-21T22:43:33.403Z,100311.75
2023-02-21T22:46:58.708Z,100324.31
2023-02-21T22:50:01.479Z,100323.00
2023-02-21T22:53:08.437Z,100318.84
2023-02-21T22:56:14.963Z,100308.59
2023-02-21T22:59:28.535Z,100326.94
2023-02-21T23:02:31.179Z,100316.25
2023-02-21T23:05:34.328Z,100301.13
2023-02-21T23:08:36.907Z,100323.75
2023-02-21T23:11:47.173Z,100316.25
2023-02-21T23:14:52.614Z,100321.91
2023-02-21T23:17:55.207Z,100327.34
2023-02-21T23:20:58.355Z,100324.97
2023-02-21T23:24:03.194Z,100318.78
2023-02-21T23:27:08.942Z,100324.72
2023-02-21T23:30:11.982Z,100326.19
2023-02-21T23:33:34.027Z,100312.75
2023-02-21T23:36:39.765Z,100324.53
2023-02-21T23:39:42.812Z,100309.84
2023-02-21T23:42:50.890Z,100329.88
2023-02-21T23:45:54.018Z,100321.47
2023-02-21T23:48:56.583Z,100328.69
2023-02-21T23:52:02.147Z,100319.47
2023-02-21T23:55:05.451Z,100314.75
2023-02-21T23:58:11.231Z,100324.56
